Time;durP1;ratioP1;P1;durP2;ratioP2;P2;SDS_P1;SDS_P2;PMS_P1;PMS_P2;Temp;Humidity;BMP_temperature;BMP_pressure;BME280_temperature;BME280_humidity;BME280_pressure;Samples;Min_cycle;Max_cycle;Signal;HPM_P1;HPM_P2
2022/05/02 00:01:20;;;;;;;;;;;8.00;99.90;;;;;;5075588;28;19969;-61
2022/05/02 00:03:46;;;;;;;;;;;7.90;99.90;;;;;;5075386;28;19920;-61
2022/05/02 00:06:12;;;;;;;;;;;7.90;99.90;;;;;;5075184;28;19924;-61
2022/05/02 00:08:37;;;;;;;;;;;7.80;99.90;;;;;;5075365;28;19928;-61
2022/05/02 00:11:03;;;;;;;;;;;7.80;99.90;;;;;;5075594;28;19920;-62
2022/05/02 00:13:28;;;;;;;;;;;7.80;99.90;;;;;;5075148;28;20298;-61
2022/05/02 00:15:54;;;;;;;;;;;7.80;99.90;;;;;;5075313;28;19928;-61
2022/05/02 00:18:20;;;;;;;;;;;7.90;99.90;;;;;;5075377;28;20012;-62
2022/05/02 00:20:46;;;;;;;;;;;7.80;99.90;;;;;;5075399;28;19925;-61
2022/05/02 00:23:12;;;;;;;;;;;7.80;99.90;;;;;;5075190;28;20216;-62
2022/05/02 00:25:37;;;;;;;;;;;7.80;99.90;;;;;;5075134;28;19927;-61
2022/05/02 00:28:03;;;;;;;;;;;7.70;99.90;;;;;;5074559;28;19933;-62
2022/05/02 00:30:29;;;;;;;;;;;7.70;99.90;;;;;;5075365;28;20390;-62
2022/05/02 00:32:55;;;;;;;;;;;7.80;99.90;;;;;;5075148;28;19966;-61
2022/05/02 00:35:21;;;;;;;;;;;7.80;99.90;;;;;;5075073;28;20412;-62
2022/05/02 00:37:47;;;;;;;;;;;7.70;99.90;;;;;;5074644;28;19920;-61
2022/05/02 00:40:14;;;;;;;;;;;7.60;99.90;;;;;;5074898;28;20367;-62
2022/05/02 00:42:41;;;;;;;;;;;7.50;99.90;;;;;;5074733;28;19943;-62
2022/05/02 00:45:07;;;;;;;;;;;7.50;99.90;;;;;;5075169;28;19921;-62
2022/05/02 00:47:34;;;;;;;;;;;7.40;99.90;;;;;;5074612;28;19925;-63
2022/05/02 00:50:00;;;;;;;;;;;7.40;99.90;;;;;;5074581;28;19920;-62
2022/05/02 00:52:26;;;;;;;;;;;7.40;99.90;;;;;;5088853;28;19927;-62
2022/05/02 00:54:52;;;;;;;;;;;7.40;99.90;;;;;;5094999;28;19920;-61
2022/05/02 00:57:17;;;;;;;;;;;7.40;99.90;;;;;;5095148;28;19970;-62
2022/05/02 00:59:43;;;;;;;;;;;7.40;99.90;;;;;;5094887;28;19928;-62
2022/05/02 01:02:10;;;;;;;;;;;7.50;99.90;;;;;;5094830;28;19931;-61
2022/05/02 01:04:36;;;;;;;;;;;7.50;99.90;;;;;;5094641;28;19973;-61
2022/05/02 01:07:11;;;;;;;;;;;7.60;99.90;;;;;;5093163;28;19924;-61
2022/05/02 01:09:38;;;;;;;;;;;7.50;99.90;;;;;;5093914;28;19928;-62
2022/05/02 01:12:05;;;;;;;;;;;7.40;99.90;;;;;;5094422;28;19920;-61
2022/05/02 01:14:34;;;;;;;;;;;7.30;99.90;;;;;;5094140;28;19920;-61
2022/05/02 01:17:00;;;;;;;;;;;7.30;99.90;;;;;;5094434;28;20262;-62
2022/05/02 01:19:26;;;;;;;;;;;7.20;99.90;;;;;;5094407;28;19920;-61
2022/05/02 01:21:51;;;;;;;;;;;7.30;99.90;;;;;;5094450;28;19927;-62
2022/05/02 01:24:17;;;;;;;;;;;7.30;99.90;;;;;;5094039;28;19943;-62
2022/05/02 01:26:42;;;;;;;;;;;7.20;99.90;;;;;;5094037;28;19924;-62
2022/05/02 01:29:08;;;;;;;;;;;7.10;99.90;;;;;;5094339;28;20399;-61
2022/05/02 01:31:34;;;;;;;;;;;7.20;99.90;;;;;;5094315;28;19920;-61
2022/05/02 01:34:00;;;;;;;;;;;7.10;99.90;;;;;;5094237;28;20430;-62
2022/05/02 01:36:26;;;;;;;;;;;7.10;99.90;;;;;;5094139;28;20290;-62
2022/05/02 01:38:51;;;;;;;;;;;7.10;99.90;;;;;;5075828;28;19920;-61
2022/05/02 01:41:17;;;;;;;;;;;7.20;99.90;;;;;;5093927;28;19927;-61
2022/05/02 01:43:43;;;;;;;;;;;7.20;99.90;;;;;;5094073;28;19920;-62
2022/05/02 01:46:09;;;;;;;;;;;7.10;99.90;;;;;;5093903;28;19928;-62
2022/05/02 01:48:35;;;;;;;;;;;7.10;99.90;;;;;;5094139;28;19920;-61
2022/05/02 01:51:01;;;;;;;;;;;7.10;99.90;;;;;;5094156;28;19921;-61
2022/05/02 01:53:27;;;;;;;;;;;7.20;99.90;;;;;;5094352;28;20282;-61
2022/05/02 01:55:52;;;;;;;;;;;7.10;99.90;;;;;;5094175;28;19920;-62
2022/05/02 01:58:18;;;;;;;;;;;7.20;99.90;;;;;;5094154;28;20321;-61
2022/05/02 02:00:44;;;;;;;;;;;7.10;99.90;;;;;;5093654;28;19920;-61
2022/05/02 02:03:10;;;;;;;;;;;7.20;99.90;;;;;;5093901;28;19964;-61
2022/05/02 02:05:50;;;;;;;;;;;7.20;99.90;;;;;;5094114;28;19927;-62
2022/05/02 02:08:19;;;;;;;;;;;7.20;99.90;;;;;;5075915;28;19984;-61
2022/05/02 02:10:45;;;;;;;;;;;7.20;99.90;;;;;;5093693;28;20422;-61
2022/05/02 02:13:11;;;;;;;;;;;7.20;99.90;;;;;;5093693;28;20012;-61
2022/05/02 02:15:37;;;;;;;;;;;7.20;99.90;;;;;;5093503;28;19920;-62
2022/05/02 02:18:02;;;;;;;;;;;7.20;99.90;;;;;;5093569;28;19920;-61
2022/05/02 02:20:28;;;;;;;;;;;7.20;99.90;;;;;;5093897;28;19924;-61
2022/05/02 02:22:54;;;;;;;;;;;7.20;99.90;;;;;;5096094;28;19965;-62
2022/05/02 02:25:20;;;;;;;;;;;7.20;99.90;;;;;;5098009;28;19963;-62
2022/05/02 02:27:45;;;;;;;;;;;7.10;99.90;;;;;;5097237;28;19971;-61
2022/05/02 02:30:11;;;;;;;;;;;7.20;99.90;;;;;;5097681;28;19924;-62
2022/05/02 02:32:37;;;;;;;;;;;7.10;99.90;;;;;;5097412;28;19923;-61
2022/05/02 02:35:02;;;;;;;;;;;7.10;99.90;;;;;;5097615;28;20320;-62
2022/05/02 02:37:28;;;;;;;;;;;7.10;99.90;;;;;;5097328;28;20413;-62
2022/05/02 02:39:53;;;;;;;;;;;7.00;99.90;;;;;;5097613;28;19927;-61
2022/05/02 02:42:19;;;;;;;;;;;7.00;99.90;;;;;;5097420;28;19920;-61
2022/05/02 02:44:45;;;;;;;;;;;7.00;99.90;;;;;;5097516;28;20362;-61
2022/05/02 02:47:10;;;;;;;;;;;6.90;99.90;;;;;;5097416;28;19924;-62
2022/05/02 02:49:36;;;;;;;;;;;6.90;99.90;;;;;;5097427;28;20324;-62
2022/05/02 02:52:02;;;;;;;;;;;6.90;99.90;;;;;;5097096;28;20412;-61
2022/05/02 02:54:28;;;;;;;;;;;6.90;99.90;;;;;;5097416;28;19920;-61
2022/05/02 02:56:53;;;;;;;;;;;6.90;99.90;;;;;;5096966;28;20278;-61
2022/05/02 02:59:19;;;;;;;;;;;6.90;99.90;;;;;;5097034;28;19927;-61
2022/05/02 03:01:44;;;;;;;;;;;6.80;99.90;;;;;;5097088;28;19920;-61
2022/05/02 03:06:54;;;;;;;;;;;6.90;99.90;;;;;;5097082;28;20007;-61
2022/05/02 03:09:20;;;;;;;;;;;7.00;99.90;;;;;;5096752;28;20020;-61
2022/05/02 03:11:45;;;;;;;;;;;6.90;99.90;;;;;;5096984;28;19920;-61
2022/05/02 03:14:11;;;;;;;;;;;6.90;99.90;;;;;;5096822;28;19920;-61
2022/05/02 03:16:37;;;;;;;;;;;6.80;99.90;;;;;;5078317;28;20281;-62
2022/05/02 03:19:02;;;;;;;;;;;6.80;99.90;;;;;;5096516;28;19920;-62
2022/05/02 03:21:28;;;;;;;;;;;6.80;99.90;;;;;;5096900;28;19946;-62
2022/05/02 03:23:53;;;;;;;;;;;6.80;99.90;;;;;;5096935;28;20413;-61
2022/05/02 03:26:19;;;;;;;;;;;6.80;99.90;;;;;;5096617;28;20298;-61
2022/05/02 03:28:45;;;;;;;;;;;6.70;99.90;;;;;;5096377;28;20289;-61
2022/05/02 03:31:10;;;;;;;;;;;6.60;99.90;;;;;;5096426;28;19920;-61
2022/05/02 03:33:36;;;;;;;;;;;6.60;99.90;;;;;;5096437;28;19952;-61
2022/05/02 03:36:02;;;;;;;;;;;6.60;99.90;;;;;;5096451;28;19920;-61
2022/05/02 03:38:27;;;;;;;;;;;6.60;99.90;;;;;;5096109;28;19920;-61
2022/05/02 03:40:53;;;;;;;;;;;6.50;99.90;;;;;;5096482;28;19927;-61
2022/05/02 03:43:18;;;;;;;;;;;6.60;99.90;;;;;;5096434;28;19970;-61
2022/05/02 03:45:44;;;;;;;;;;;6.50;99.90;;;;;;5096284;28;19920;-62
2022/05/02 03:48:09;;;;;;;;;;;6.50;99.90;;;;;;5096047;28;19924;-62
2022/05/02 03:50:35;;;;;;;;;;;6.50;99.90;;;;;;5095885;28;20343;-61
2022/05/02 03:53:00;;;;;;;;;;;6.40;99.90;;;;;;5096146;28;19959;-61
2022/05/02 03:55:26;;;;;;;;;;;6.40;99.90;;;;;;5096030;28;19927;-61
2022/05/02 03:57:52;;;;;;;;;;;6.50;99.90;;;;;;5096061;28;20378;-61
2022/05/02 04:00:17;;;;;;;;;;;6.40;99.90;;;;;;5095562;28;20380;-61
2022/05/02 04:02:43;;;;;;;;;;;6.30;99.90;;;;;;5095688;28;19926;-61
2022/05/02 04:05:09;;;;;;;;;;;6.30;99.90;;;;;;5095755;28;19931;-61
2022/05/02 04:07:34;;;;;;;;;;;6.30;99.90;;;;;;5095807;28;20010;-61
2022/05/02 04:10:00;;;;;;;;;;;6.30;99.90;;;;;;5095593;28;19976;-61
2022/05/02 04:12:25;;;;;;;;;;;6.30;99.90;;;;;;5095637;28;20386;-61
2022/05/02 04:14:51;;;;;;;;;;;6.30;99.90;;;;;;5095843;28;19927;-62
2022/05/02 04:17:16;;;;;;;;;;;6.40;99.90;;;;;;5095847;28;19965;-61
2022/05/02 04:19:42;;;;;;;;;;;6.40;99.90;;;;;;5095461;28;19974;-62
2022/05/02 04:22:08;;;;;;;;;;;6.50;99.90;;;;;;5095218;28;20324;-61
2022/05/02 04:24:33;;;;;;;;;;;6.50;99.90;;;;;;5095162;28;20409;-61
2022/05/02 04:26:59;;;;;;;;;;;6.50;99.90;;;;;;5095223;28;19924;-61
2022/05/02 04:29:25;;;;;;;;;;;6.40;99.90;;;;;;5095407;28;19927;-61
2022/05/02 04:31:50;;;;;;;;;;;6.40;99.90;;;;;;5095214;28;19924;-61
2022/05/02 04:34:16;;;;;;;;;;;6.30;99.90;;;;;;5094882;28;20016;-61
2022/05/02 04:36:42;;;;;;;;;;;6.30;99.90;;;;;;5095020;28;19926;-61
2022/05/02 04:39:07;;;;;;;;;;;6.30;99.90;;;;;;5095168;28;20019;-61
2022/05/02 04:41:33;;;;;;;;;;;6.30;99.90;;;;;;5095226;28;19927;-62
2022/05/02 04:43:58;;;;;;;;;;;6.30;99.90;;;;;;5094831;28;19971;-61
2022/05/02 04:46:26;;;;;;;;;;;6.30;99.90;;;;;;5076095;28;19924;-62
2022/05/02 04:48:52;;;;;;;;;;;6.30;99.90;;;;;;5094305;28;20339;-61
2022/05/02 04:51:17;;;;;;;;;;;6.50;99.90;;;;;;5094903;28;19924;-61
2022/05/02 04:53:43;;;;;;;;;;;6.50;99.90;;;;;;5094654;28;19927;-61
2022/05/02 04:56:08;;;;;;;;;;;6.60;99.90;;;;;;5094546;28;20019;-62
2022/05/02 04:58:34;;;;;;;;;;;6.60;99.90;;;;;;5094760;28;20046;-62
2022/05/02 05:00:59;;;;;;;;;;;6.60;99.90;;;;;;5094776;28;19924;-61
2022/05/02 05:03:25;;;;;;;;;;;6.60;99.90;;;;;;5094410;28;20439;-61
2022/05/02 05:05:53;;;;;;;;;;;6.60;99.90;;;;;;5076191;28;19923;-61
2022/05/02 05:08:19;;;;;;;;;;;6.60;99.90;;;;;;5094704;28;20297;-62
2022/05/02 05:10:47;;;;;;;;;;;6.60;99.90;;;;;;5094480;28;19920;-61
2022/05/02 05:13:16;;;;;;;;;;;6.70;99.90;;;;;;5076093;28;20393;-61
2022/05/02 05:18:41;;;;;;;;;;;6.90;99.90;;;;;;5076232;28;20428;-61
2022/05/02 05:21:21;;;;;;;;;;;6.90;99.90;;;;;;5094066;28;19927;-62
2022/05/02 05:24:06;;;;;;;;;;;7.10;99.90;;;;;;5083970;28;19943;-62
2022/05/02 05:26:37;;;;;;;;;;;7.10;99.90;;;;;;5073545;28;19925;-62
2022/05/02 05:29:05;;;;;;;;;;;7.20;99.90;;;;;;5083878;28;19920;-61
2022/05/02 05:31:32;;;;;;;;;;;7.30;99.90;;;;;;5062629;28;19921;-62
2022/05/02 05:34:06;;;;;;;;;;;7.40;99.90;;;;;;5090753;28;19920;-61
2022/05/02 05:36:34;;;;;;;;;;;7.50;99.90;;;;;;5093758;28;19977;-61
2022/05/02 05:39:04;;;;;;;;;;;7.60;99.90;;;;;;5093838;28;19924;-61
2022/05/02 05:41:39;;;;;;;;;;;7.70;99.90;;;;;;5093838;28;19927;-62
2022/05/02 05:44:10;;;;;;;;;;;7.90;99.90;;;;;;5093446;28;20413;-62
2022/05/02 05:46:42;;;;;;;;;;;8.00;99.90;;;;;;5075232;28;20271;-62
2022/05/02 05:49:20;;;;;;;;;;;8.20;99.90;;;;;;5093833;28;19920;-62
2022/05/02 05:51:48;;;;;;;;;;;8.30;99.90;;;;;;5093498;28;19920;-62
2022/05/02 05:54:16;;;;;;;;;;;8.50;99.90;;;;;;5093713;28;19931;-62
2022/05/02 05:57:17;;;;;;;;;;;8.50;99.90;;;;;;5092502;28;20382;-63
2022/05/02 06:00:15;;;;;;;;;;;8.70;99.90;;;;;;5011403;28;20013;-62
2022/05/02 06:02:53;;;;;;;;;;;8.90;99.90;;;;;;4975293;28;19922;-62
2022/05/02 06:05:18;;;;;;;;;;;9.10;99.90;;;;;;4991548;28;19926;-62
2022/05/02 06:07:46;;;;;;;;;;;9.30;99.90;;;;;;4991387;28;19926;-62
2022/05/02 06:10:13;;;;;;;;;;;9.60;99.90;;;;;;4990358;28;19930;-62
2022/05/02 06:12:39;;;;;;;;;;;9.80;99.90;;;;;;4991359;28;19933;-62
2022/05/02 06:20:39;;;;;;;;;;;10.60;99.90;;;;;;4990825;28;20377;-60
2022/05/02 06:23:11;;;;;;;;;;;10.70;99.90;;;;;;4990877;28;19926;-60
2022/05/02 06:25:37;;;;;;;;;;;10.90;99.90;;;;;;4990887;28;19922;-62
2022/05/02 06:28:03;;;;;;;;;;;11.40;99.90;;;;;;4991510;28;20008;-61
2022/05/02 06:30:29;;;;;;;;;;;11.50;99.90;;;;;;4991256;28;19942;-61
2022/05/02 06:32:57;;;;;;;;;;;11.60;99.90;;;;;;4994876;28;19979;-61
2022/05/02 06:35:23;;;;;;;;;;;11.80;99.90;;;;;;5011049;28;19922;-62
2022/05/02 06:38:09;;;;;;;;;;;12.10;99.90;;;;;;5029982;28;20358;-60
2022/05/02 06:40:35;;;;;;;;;;;12.10;99.90;;;;;;5072055;28;19972;-60
2022/05/02 06:43:12;;;;;;;;;;;12.30;99.90;;;;;;5072031;28;19972;-61
2022/05/02 06:45:38;;;;;;;;;;;12.70;99.90;;;;;;5071922;28;19924;-61
2022/05/02 06:48:12;;;;;;;;;;;13.00;99.90;;;;;;5071633;28;20294;-61
2022/05/02 06:50:39;;;;;;;;;;;13.10;99.90;;;;;;5072053;28;19927;-62
2022/05/02 06:53:16;;;;;;;;;;;13.30;99.90;;;;;;5072345;28;19974;-61
2022/05/02 06:55:42;;;;;;;;;;;13.50;99.90;;;;;;5072386;28;19968;-61
2022/05/02 06:58:26;;;;;;;;;;;13.50;99.90;;;;;;5071932;28;20436;-60
2022/05/02 07:00:57;;;;;;;;;;;13.80;99.90;;;;;;5072351;28;20011;-61
2022/05/02 07:03:29;;;;;;;;;;;14.10;99.90;;;;;;5072553;28;19920;-61
2022/05/02 07:06:16;;;;;;;;;;;14.20;99.90;;;;;;5071623;28;20019;-60
2022/05/02 07:08:49;;;;;;;;;;;14.40;99.90;;;;;;5073322;28;20286;-60
2022/05/02 07:11:17;;;;;;;;;;;14.50;99.90;;;;;;5075352;28;19925;-60
2022/05/02 07:13:56;;;;;;;;;;;14.70;99.90;;;;;;5075519;28;20029;-60
2022/05/02 07:16:23;;;;;;;;;;;14.90;99.90;;;;;;5075983;28;20301;-61
2022/05/02 07:19:09;;;;;;;;;;;15.00;99.90;;;;;;5076092;28;19931;-62
2022/05/02 07:21:39;;;;;;;;;;;15.40;99.90;;;;;;4994091;28;20013;-62
2022/05/02 07:24:07;;;;;;;;;;;15.60;99.90;;;;;;4993759;28;19928;-62
2022/05/02 07:26:37;;;;;;;;;;;15.80;99.90;;;;;;4993623;28;19934;-61
2022/05/02 07:29:04;;;;;;;;;;;15.70;99.90;;;;;;4993407;28;20016;-61
2022/05/02 07:31:30;;;;;;;;;;;16.10;99.90;;;;;;4993557;28;19968;-60
2022/05/02 07:33:56;;;;;;;;;;;16.40;99.90;;;;;;4993433;28;20277;-60
2022/05/02 07:36:22;;;;;;;;;;;16.30;99.90;;;;;;4993453;28;20063;-60
2022/05/02 07:39:04;;;;;;;;;;;16.30;99.90;;;;;;4960558;28;20007;-61
2022/05/02 07:41:31;;;;;;;;;;;16.60;99.90;;;;;;4960903;28;19957;-60
2022/05/02 07:44:06;;;;;;;;;;;16.90;99.90;;;;;;4993153;28;19922;-59
2022/05/02 07:46:36;;;;;;;;;;;17.30;99.90;;;;;;4976797;28;19926;-59
2022/05/02 07:49:03;;;;;;;;;;;17.20;99.90;;;;;;4993190;28;19925;-60
2022/05/02 07:51:29;;;;;;;;;;;17.20;99.90;;;;;;4993286;28;19956;-59
2022/05/02 07:53:56;;;;;;;;;;;17.50;99.90;;;;;;4992935;28;20416;-60
2022/05/02 07:56:23;;;;;;;;;;;17.40;99.90;;;;;;4992955;28;20020;-61
2022/05/02 07:58:50;;;;;;;;;;;17.30;99.90;;;;;;5016559;28;19976;-60
2022/05/02 08:01:16;;;;;;;;;;;17.50;99.90;;;;;;5034849;28;19975;-59
2022/05/02 08:03:42;;;;;;;;;;;18.00;99.90;;;;;;5034750;28;20288;-60
2022/05/02 08:06:17;;;;;;;;;;;18.20;99.90;;;;;;5034252;28;19929;-59
2022/05/02 08:08:49;;;;;;;;;;;18.10;99.90;;;;;;5034278;28;19922;-60
2022/05/02 08:11:21;;;;;;;;;;;18.60;99.90;;;;;;5034183;28;19921;-60
2022/05/02 08:13:52;;;;;;;;;;;18.90;99.90;;;;;;5034305;28;19921;-59
2022/05/02 08:16:22;;;;;;;;;;;18.90;99.30;;;;;;5034432;28;19921;-60
2022/05/02 08:18:47;;;;;;;;;;;18.50;99.10;;;;;;5034061;28;19948;-60
2022/05/02 08:21:22;;;;;;;;;;;18.50;98.60;;;;;;5033458;28;20458;-62
2022/05/02 08:27:15;;;;;;;;;;;19.80;98.60;;;;;;5051451;28;19925;-58
2022/05/02 08:29:46;;;;;;;;;;;20.20;96.20;;;;;;5055894;28;20003;-58
2022/05/02 08:32:15;;;;;;;;;;;20.80;96.20;;;;;;5073570;28;20018;-58
2022/05/02 08:34:40;;;;;;;;;;;21.00;96.40;;;;;;5073781;28;19927;-58
2022/05/02 08:37:06;;;;;;;;;;;20.90;96.00;;;;;;5073744;28;19924;-58
2022/05/02 08:39:34;;;;;;;;;;;21.30;96.90;;;;;;5073649;28;20393;-58
2022/05/02 08:42:19;;;;;;;;;;;21.70;95.30;;;;;;5073466;28;20024;-58
2022/05/02 08:45:04;;;;;;;;;;;21.60;94.50;;;;;;5073346;28;19943;-58
2022/05/02 08:47:51;;;;;;;;;;;22.10;95.20;;;;;;4991790;28;19977;-59
2022/05/02 08:50:23;;;;;;;;;;;21.10;94.00;;;;;;4992277;28;19936;-59
2022/05/02 08:52:57;;;;;;;;;;;21.50;93.90;;;;;;4991791;28;19929;-59
2022/05/02 08:55:37;;;;;;;;;;;21.60;94.30;;;;;;4991846;28;20018;-59
2022/05/02 08:58:20;;;;;;;;;;;21.90;93.30;;;;;;4991754;28;20307;-59
2022/05/02 09:01:04;;;;;;;;;;;22.20;93.60;;;;;;4991928;28;20395;-59
2022/05/02 09:03:48;;;;;;;;;;;22.40;93.40;;;;;;4991672;28;19922;-59
2022/05/02 09:06:26;;;;;;;;;;;22.20;92.70;;;;;;4991496;28;20315;-58
2022/05/02 09:09:03;;;;;;;;;;;21.90;92.80;;;;;;4991532;28;19922;-59
2022/05/02 09:11:38;;;;;;;;;;;22.00;94.20;;;;;;4991363;28;19933;-58
2022/05/02 09:14:19;;;;;;;;;;;22.30;93.40;;;;;;4991605;28;19921;-58
2022/05/02 09:16:59;;;;;;;;;;;22.10;92.70;;;;;;4991575;28;19921;-58
2022/05/02 09:19:45;;;;;;;;;;;22.30;91.50;;;;;;4991354;28;19928;-59
2022/05/02 09:22:13;;;;;;;;;;;22.70;91.90;;;;;;4971631;28;20009;-59
2022/05/02 09:24:51;;;;;;;;;;;21.90;92.00;;;;;;4992031;28;20403;-59
2022/05/02 09:27:25;;;;;;;;;;;22.30;91.60;;;;;;5010672;28;20379;-59
2022/05/02 09:30:15;;;;;;;;;;;22.50;91.40;;;;;;5011024;28;19979;-59
2022/05/02 09:32:48;;;;;;;;;;;22.60;91.00;;;;;;5010420;28;20365;-59
2022/05/02 09:35:16;;;;;;;;;;;22.90;91.70;;;;;;5010633;28;19928;-59
2022/05/02 09:37:50;;;;;;;;;;;22.80;91.00;;;;;;5010825;28;19922;-58
2022/05/02 09:40:17;;;;;;;;;;;22.90;90.90;;;;;;5010837;28;19964;-59
2022/05/02 09:42:56;;;;;;;;;;;22.70;91.30;;;;;;5010710;28;19929;-58
2022/05/02 09:51:19;;;;;;;;;;;23.00;91.10;;;;;;4971781;28;19933;-59
2022/05/02 09:53:48;;;;;;;;;;;23.40;88.30;;;;;;4971714;28;19922;-59
2022/05/02 09:56:38;;;;;;;;;;;23.70;90.10;;;;;;4971489;28;19953;-59
2022/05/02 09:59:08;;;;;;;;;;;23.80;88.80;;;;;;4971507;28;20021;-59
2022/05/02 10:01:34;;;;;;;;;;;24.10;90.00;;;;;;4971425;28;20025;-59
2022/05/02 10:04:11;;;;;;;;;;;24.30;87.10;;;;;;4971329;28;19929;-59
2022/05/02 10:06:47;;;;;;;;;;;23.80;88.30;;;;;;4971429;28;20018;-59
2022/05/02 10:09:31;;;;;;;;;;;23.90;87.80;;;;;;4971449;28;19922;-59
2022/05/02 10:12:02;;;;;;;;;;;24.50;87.50;;;;;;4971346;28;20365;-62
2022/05/02 10:14:27;;;;;;;;;;;24.60;88.90;;;;;;4971080;28;20029;-63
2022/05/02 10:16:59;;;;;;;;;;;24.30;88.80;;;;;;4971138;28;20424;-62
2022/05/02 10:19:43;;;;;;;;;;;24.40;87.40;;;;;;4971237;28;19961;-62
2022/05/02 10:22:08;;;;;;;;;;;23.80;88.60;;;;;;4970917;28;20019;-61
2022/05/02 10:24:36;;;;;;;;;;;23.30;89.00;;;;;;4971093;28;19982;-62
2022/05/02 10:27:13;;;;;;;;;;;22.30;88.60;;;;;;4998724;28;19925;-62
2022/05/02 10:29:54;;;;;;;;;;;21.60;90.40;;;;;;5071875;28;20386;-61
2022/05/02 10:32:31;;;;;;;;;;;21.30;90.70;;;;;;5071849;28;19971;-61
2022/05/02 10:35:02;;;;;;;;;;;20.60;90.90;;;;;;5071756;28;20286;-61
2022/05/02 10:37:31;;;;;;;;;;;20.50;92.00;;;;;;5072030;28;19986;-61
2022/05/02 10:40:04;;;;;;;;;;;20.30;91.30;;;;;;5071731;28;19921;-61
2022/05/02 10:42:31;;;;;;;;;;;20.10;90.80;;;;;;5071814;28;20283;-61
2022/05/02 10:45:02;;;;;;;;;;;21.20;91.50;;;;;;5075597;28;20011;-61
2022/05/02 10:47:37;;;;;;;;;;;20.90;91.60;;;;;;5075374;28;19924;-61
2022/05/02 10:50:07;;;;;;;;;;;21.60;90.40;;;;;;5075994;28;19927;-59
2022/05/02 10:52:35;;;;;;;;;;;21.80;91.50;;;;;;5076474;28;19921;-59
2022/05/02 10:55:07;;;;;;;;;;;21.90;91.90;;;;;;5076448;28;19920;-59
2022/05/02 10:57:40;;;;;;;;;;;21.90;91.20;;;;;;5076448;28;20042;-59
2022/05/02 11:00:07;;;;;;;;;;;23.30;87.70;;;;;;5076292;28;19928;-59
2022/05/02 11:02:52;;;;;;;;;;;23.70;86.40;;;;;;5076445;28;20017;-60
2022/05/02 11:05:19;;;;;;;;;;;24.10;86.50;;;;;;5076345;28;19966;-59
2022/05/02 11:07:44;;;;;;;;;;;24.90;86.70;;;;;;5075570;28;20473;-59
2022/05/02 11:10:11;;;;;;;;;;;25.00;86.10;;;;;;5075947;28;20011;-60
2022/05/02 11:12:40;;;;;;;;;;;25.00;86.80;;;;;;5075966;28;20366;-59
2022/05/02 11:15:07;;;;;;;;;;;24.90;86.20;;;;;;5076022;28;19962;-60
2022/05/02 11:17:37;;;;;;;;;;;25.20;84.60;;;;;;5076010;28;19924;-59
2022/05/02 11:22:59;;;;;;;;;;;25.50;85.80;;;;;;5076086;28;19921;-59
2022/05/02 11:25:28;;;;;;;;;;;25.30;84.50;;;;;;5057569;28;19927;-59
2022/05/02 11:28:03;;;;;;;;;;;24.70;85.50;;;;;;5075324;28;20011;-59
2022/05/02 11:30:34;;;;;;;;;;;24.00;86.20;;;;;;5075628;28;19924;-59
2022/05/02 11:33:05;;;;;;;;;;;22.80;86.10;;;;;;5075705;28;20015;-59
2022/05/02 11:35:32;;;;;;;;;;;22.20;84.80;;;;;;5075496;28;19927;-59
2022/05/02 11:38:09;;;;;;;;;;;22.90;88.00;;;;;;5075341;28;19963;-59
2022/05/02 11:40:42;;;;;;;;;;;23.30;84.80;;;;;;5075460;28;19920;-59
2022/05/02 11:43:09;;;;;;;;;;;23.00;82.80;;;;;;5075396;28;20375;-59
2022/05/02 11:45:37;;;;;;;;;;;23.40;82.30;;;;;;5057848;28;19920;-59
2022/05/02 11:48:07;;;;;;;;;;;24.30;84.10;;;;;;5075526;28;20279;-59
2022/05/02 11:50:40;;;;;;;;;;;25.00;85.50;;;;;;5040224;28;19924;-59
2022/05/02 11:53:08;;;;;;;;;;;24.80;80.20;;;;;;5075389;28;19921;-59
2022/05/02 11:55:34;;;;;;;;;;;24.80;79.70;;;;;;5056345;28;19927;-59
2022/05/02 11:58:07;;;;;;;;;;;24.80;82.70;;;;;;5075112;28;19921;-59
2022/05/02 12:00:34;;;;;;;;;;;24.90;81.00;;;;;;5074968;28;20440;-59
2022/05/02 12:03:22;;;;;;;;;;;24.80;81.80;;;;;;5074792;28;20381;-59
2022/05/02 12:05:52;;;;;;;;;;;25.00;83.00;;;;;;5075463;28;19927;-59
2022/05/02 12:08:31;;;;;;;;;;;25.10;83.00;;;;;;5074822;28;20260;-59
2022/05/02 12:11:03;;;;;;;;;;;25.10;80.80;;;;;;5074871;28;19920;-59
2022/05/02 12:13:34;;;;;;;;;;;24.90;81.50;;;;;;5074755;28;19925;-59
2022/05/02 12:16:04;;;;;;;;;;;24.90;82.20;;;;;;5074803;28;19998;-59
2022/05/02 12:18:39;;;;;;;;;;;24.70;79.40;;;;;;5074880;28;19924;-59
2022/05/02 12:21:05;;;;;;;;;;;24.80;81.90;;;;;;5074710;28;19920;-59
2022/05/02 12:23:33;;;;;;;;;;;25.00;77.90;;;;;;5075138;28;19927;-59
2022/05/02 12:26:00;;;;;;;;;;;24.80;83.30;;;;;;5074231;28;20442;-59
2022/05/02 12:28:40;;;;;;;;;;;25.10;81.80;;;;;;5074506;28;20062;-59
2022/05/02 12:31:16;;;;;;;;;;;24.70;85.50;;;;;;5074584;28;19920;-59
2022/05/02 12:33:43;;;;;;;;;;;24.70;87.40;;;;;;5056317;28;19920;-59
2022/05/02 12:36:14;;;;;;;;;;;24.30;87.10;;;;;;5074316;28;19950;-59
2022/05/02 12:38:40;;;;;;;;;;;24.50;88.40;;;;;;5074308;28;19963;-59
2022/05/02 12:41:07;;;;;;;;;;;24.40;86.80;;;;;;5074190;28;20005;-59
2022/05/02 12:43:44;;;;;;;;;;;24.20;87.90;;;;;;5074159;28;19924;-59
2022/05/02 12:46:10;;;;;;;;;;;24.20;88.80;;;;;;5055687;28;19931;-59
2022/05/02 12:48:49;;;;;;;;;;;24.00;85.80;;;;;;5055964;28;19924;-59
2022/05/02 12:51:18;;;;;;;;;;;24.20;89.00;;;;;;5073877;28;19925;-59
2022/05/02 12:56:27;;;;;;;;;;;24.10;86.50;;;;;;5073624;28;19929;-59
2022/05/02 13:01:42;;;;;;;;;;;24.10;88.30;;;;;;5073524;28;19921;-60
2022/05/02 13:04:14;;;;;;;;;;;24.30;86.90;;;;;;5073383;28;20290;-60
2022/05/02 13:06:39;;;;;;;;;;;24.10;89.00;;;;;;5072554;28;20029;-60
2022/05/02 13:09:12;;;;;;;;;;;24.00;85.00;;;;;;5073326;28;19966;-59
2022/05/02 13:11:39;;;;;;;;;;;24.20;88.00;;;;;;5073030;28;20353;-59
2022/05/02 13:14:05;;;;;;;;;;;24.40;88.10;;;;;;5073278;28;19920;-59
2022/05/02 13:16:50;;;;;;;;;;;24.40;88.60;;;;;;5073436;28;19950;-59
2022/05/02 13:19:15;;;;;;;;;;;24.10;87.30;;;;;;5054713;28;20363;-59
2022/05/02 13:21:41;;;;;;;;;;;23.80;88.10;;;;;;5072694;28;19921;-59
2022/05/02 13:24:09;;;;;;;;;;;24.00;88.00;;;;;;5072956;28;19922;-59
2022/05/02 13:26:41;;;;;;;;;;;23.90;89.20;;;;;;5072709;28;19925;-59
2022/05/02 13:29:07;;;;;;;;;;;23.90;89.70;;;;;;5072963;28;19927;-59
2022/05/02 13:31:32;;;;;;;;;;;23.90;89.00;;;;;;5073221;28;20276;-59
2022/05/02 13:34:01;;;;;;;;;;;23.70;89.90;;;;;;5073109;28;19931;-59
2022/05/02 13:36:30;;;;;;;;;;;23.80;90.00;;;;;;5072998;28;19925;-58
2022/05/02 13:39:08;;;;;;;;;;;23.80;88.60;;;;;;5073267;28;19924;-59
2022/05/02 13:41:40;;;;;;;;;;;23.70;90.10;;;;;;5073038;28;19970;-59
2022/05/02 13:44:21;;;;;;;;;;;23.80;89.30;;;;;;5072593;28;19927;-59
2022/05/02 13:46:51;;;;;;;;;;;23.50;88.50;;;;;;5072471;28;19931;-59
2022/05/02 13:49:25;;;;;;;;;;;23.50;90.00;;;;;;5072753;28;19950;-59
2022/05/02 13:52:01;;;;;;;;;;;23.50;90.00;;;;;;5072562;28;19920;-58
2022/05/02 13:54:28;;;;;;;;;;;23.60;90.20;;;;;;5072924;28;20322;-59
2022/05/02 13:56:58;;;;;;;;;;;23.30;90.10;;;;;;5072662;28;19924;-59
2022/05/02 13:59:35;;;;;;;;;;;23.30;88.90;;;;;;5072426;28;20341;-59
2022/05/02 14:02:09;;;;;;;;;;;23.30;90.10;;;;;;5072569;28;19927;-59
2022/05/02 14:04:39;;;;;;;;;;;23.00;90.20;;;;;;5072552;28;20066;-59
2022/05/02 14:07:12;;;;;;;;;;;23.00;90.30;;;;;;5072481;28;19932;-59
2022/05/02 14:09:47;;;;;;;;;;;23.10;90.30;;;;;;5072234;28;19921;-59
2022/05/02 14:12:21;;;;;;;;;;;23.20;90.00;;;;;;5072400;28;19921;-59
2022/05/02 14:14:54;;;;;;;;;;;23.30;89.60;;;;;;5072436;28;19920;-58
2022/05/02 14:17:25;;;;;;;;;;;23.20;90.30;;;;;;5072357;28;19927;-59
2022/05/02 14:19:50;;;;;;;;;;;23.50;91.20;;;;;;5076080;28;20026;-59
2022/05/02 14:22:31;;;;;;;;;;;23.60;90.90;;;;;;5076531;28;19920;-59
2022/05/02 14:24:59;;;;;;;;;;;23.40;90.80;;;;;;5076867;28;20371;-59
2022/05/02 14:27:24;;;;;;;;;;;23.30;91.10;;;;;;5076435;28;19925;-59
2022/05/02 14:29:59;;;;;;;;;;;23.20;90.30;;;;;;5076599;28;19924;-58
2022/05/02 14:32:37;;;;;;;;;;;22.70;90.90;;;;;;5076645;28;20011;-58
2022/05/02 14:35:04;;;;;;;;;;;22.80;90.80;;;;;;5076513;28;20011;-59
2022/05/02 14:37:29;;;;;;;;;;;22.50;91.30;;;;;;5076427;28;19924;-59
2022/05/02 14:39:55;;;;;;;;;;;22.30;91.10;;;;;;5076788;28;20389;-58
2022/05/02 14:42:21;;;;;;;;;;;22.40;90.90;;;;;;5076172;28;19928;-59
2022/05/02 14:44:46;;;;;;;;;;;22.10;91.70;;;;;;5076208;28;19920;-58
2022/05/02 14:47:15;;;;;;;;;;;22.30;91.70;;;;;;5075655;28;19928;-59
2022/05/02 14:49:41;;;;;;;;;;;22.30;90.80;;;;;;5076007;28;19927;-58
2022/05/02 14:52:17;;;;;;;;;;;22.30;91.10;;;;;;5075959;28;19928;-58
2022/05/02 14:54:44;;;;;;;;;;;22.40;91.60;;;;;;5057091;28;20050;-58
2022/05/02 14:57:11;;;;;;;;;;;22.20;91.30;;;;;;5075986;28;20480;-58
2022/05/02 14:59:37;;;;;;;;;;;22.30;91.00;;;;;;5075609;28;19921;-59
2022/05/02 15:02:05;;;;;;;;;;;21.90;90.90;;;;;;5075440;28;19920;-59
2022/05/02 15:04:34;;;;;;;;;;;21.60;91.00;;;;;;5056945;28;19998;-59
2022/05/02 15:07:00;;;;;;;;;;;21.80;91.80;;;;;;5075055;28;20290;-59